Terminal Aerodrome Forecast
Issued by NWS

Home | Current Version | Previous Version | Graphics & Text | Print | Product List | Glossary On
Versions: 1 2 3 4 5 6 7 8 9 10 11 12 13 14 15 16 17 18
000
FTUS43 KFGF 192317 AAC
TAFBJI
TAF AMD
KBJI 192317Z 1923/2018 32014G19KT P6SM SCT060
     FM200300 35004KT P6SM VCTS BKN080CB
     FM200400 32005KT P6SM -SHRA VCTS BKN090CB
     FM200600 27004KT P6SM VCSH BKN100
     FM200900 30005KT P6SM BKN045
     FM201000 31007KT P6SM SCT120=

USA.gov is the U.S. government's official web portal to all federal, state and local government web resources and services.